Millington Regional Jetport Airport Millington US
ICAO: KNQA
IATA: NQA
Category: Medium
Scheduled Services: No

Elevation: 320 ft
TransAlt. 18000 ft.

Airport Communications:
MEMPHIS APP:119.1
AWOS 3:118.925
CTAF:120.25
MEMPHIS DEP:124.15
GND:121.375
TWR:120.25
UNICOM:122.95

KNQA Zoom In..

If Map Doesn't Load, Click Here

Runways:

(A) RW 04 length 8000 ft width 200 ft
---- / hdg 39

(B) RW 22 length 8000 ft width 200 ft
ILS 109.75 / hdg 219

Location; KNQA
Day. 23 / Time. 08.35 Zulu
* Altimeter: 29.97
* Temperature: 19° c. 66.2°f.
* Wind from: 000° Speed 00 kn.
Dewpoint: 18° c.
Visibility: 5 Statute Miles.
Clouds: Overcast 300 ft.
Conditions: Mist.

KNQA 230835Z AUTO 00000KT 5SM BR OVC003 19/18 A2997 RMK A01


Wind - Calm.

 
 
jpsmedia.com for Web Design worldairports.se 2018   terms of use